sensor_id;sensor_type;location;lat;lon;timestamp;temperature;humidity
66568;DHT22;53422;49.296;6.900;2022-12-29T00:02:09;8.50;99.90
66568;DHT22;53422;49.296;6.900;2022-12-29T00:04:35;8.50;99.90
66568;DHT22;53422;49.296;6.900;2022-12-29T00:07:00;8.60;99.90
66568;DHT22;53422;49.296;6.900;2022-12-29T00:09:26;8.60;99.90
66568;DHT22;53422;49.296;6.900;2022-12-29T00:11:52;8.60;99.90
66568;DHT22;53422;49.296;6.900;2022-12-29T00:14:18;8.50;99.90
66568;DHT22;53422;49.296;6.900;2022-12-29T00:17:02;8.50;99.90
66568;DHT22;53422;49.296;6.900;2022-12-29T00:19:28;8.50;99.90
66568;DHT22;53422;49.296;6.900;2022-12-29T00:22:13;8.60;99.90
66568;DHT22;53422;49.296;6.900;2022-12-29T00:24:58;8.60;99.90
66568;DHT22;53422;49.296;6.900;2022-12-29T00:27:28;8.60;99.90
66568;DHT22;53422;49.296;6.900;2022-12-29T00:30:15;8.60;99.90
66568;DHT22;53422;49.296;6.900;2022-12-29T00:33:00;8.70;99.90
66568;DHT22;53422;49.296;6.900;2022-12-29T00:35:47;8.50;99.90
66568;DHT22;53422;49.296;6.900;2022-12-29T00:38:17;8.60;99.90
66568;DHT22;53422;49.296;6.900;2022-12-29T00:41:02;8.60;99.90
66568;DHT22;53422;49.296;6.900;2022-12-29T00:43:46;8.60;99.90
66568;DHT22;53422;49.296;6.900;2022-12-29T00:46:33;8.60;99.90
66568;DHT22;53422;49.296;6.900;2022-12-29T00:48:59;8.60;99.90
66568;DHT22;53422;49.296;6.900;2022-12-29T00:51:44;8.70;99.90
66568;DHT22;53422;49.296;6.900;2022-12-29T00:54:09;8.60;99.90
66568;DHT22;53422;49.296;6.900;2022-12-29T00:56:35;8.60;99.90
66568;DHT22;53422;49.296;6.900;2022-12-29T00:59:06;8.60;99.90
66568;DHT22;53422;49.296;6.900;2022-12-29T01:01:33;8.60;99.90
66568;DHT22;53422;49.296;6.900;2022-12-29T01:03:59;8.60;99.90
66568;DHT22;53422;49.296;6.900;2022-12-29T01:06:24;8.70;99.90
66568;DHT22;53422;49.296;6.900;2022-12-29T01:08:51;8.70;99.90
66568;DHT22;53422;49.296;6.900;2022-12-29T01:11:37;8.60;99.90
66568;DHT22;53422;49.296;6.900;2022-12-29T01:14:03;8.70;99.90
66568;DHT22;53422;49.296;6.900;2022-12-29T01:16:28;8.70;99.90
66568;DHT22;53422;49.296;6.900;2022-12-29T01:18:54;8.70;99.90
66568;DHT22;53422;49.296;6.900;2022-12-29T01:21:21;8.70;99.90
66568;DHT22;53422;49.296;6.900;2022-12-29T01:23:47;8.70;99.90
66568;DHT22;53422;49.296;6.900;2022-12-29T01:26:14;8.60;99.90
66568;DHT22;53422;49.296;6.900;2022-12-29T01:28:40;8.60;99.90
66568;DHT22;53422;49.296;6.900;2022-12-29T01:31:07;8.70;99.90
66568;DHT22;53422;49.296;6.900;2022-12-29T01:33:33;8.70;99.90
66568;DHT22;53422;49.296;6.900;2022-12-29T01:36:03;8.60;99.90
66568;DHT22;53422;49.296;6.900;2022-12-29T01:38:30;8.60;99.90
66568;DHT22;53422;49.296;6.900;2022-12-29T01:40:55;8.50;99.90
66568;DHT22;53422;49.296;6.900;2022-12-29T01:43:21;8.60;99.90
66568;DHT22;53422;49.296;6.900;2022-12-29T01:45:51;8.70;99.90
66568;DHT22;53422;49.296;6.900;2022-12-29T01:48:19;8.70;99.90
66568;DHT22;53422;49.296;6.900;2022-12-29T01:50:54;8.80;99.90
66568;DHT22;53422;49.296;6.900;2022-12-29T01:53:27;8.70;99.90
66568;DHT22;53422;49.296;6.900;2022-12-29T01:56:01;8.70;99.90
66568;DHT22;53422;49.296;6.900;2022-12-29T01:58:32;8.70;99.90
66568;DHT22;53422;49.296;6.900;2022-12-29T02:00:58;8.80;99.90
66568;DHT22;53422;49.296;6.900;2022-12-29T02:03:25;8.70;99.90
66568;DHT22;53422;49.296;6.900;2022-12-29T02:08:18;8.70;99.90
66568;DHT22;53422;49.296;6.900;2022-12-29T02:10:44;8.60;99.90
66568;DHT22;53422;49.296;6.900;2022-12-29T02:13:10;8.70;99.90
66568;DHT22;53422;49.296;6.900;2022-12-29T02:46:06;8.80;99.90
66568;DHT22;53422;49.296;6.900;2022-12-29T02:50:43;8.70;99.90
66568;DHT22;53422;49.296;6.900;2022-12-29T02:53:15;8.60;99.90
66568;DHT22;53422;49.296;6.900;2022-12-29T02:55:49;8.70;99.90
66568;DHT22;53422;49.296;6.900;2022-12-29T02:58:22;8.80;99.90
66568;DHT22;53422;49.296;6.900;2022-12-29T03:04:31;8.70;99.90
66568;DHT22;53422;49.296;6.900;2022-12-29T03:14:58;8.80;99.90
66568;DHT22;53422;49.296;6.900;2022-12-29T03:17:56;8.80;99.90
66568;DHT22;53422;49.296;6.900;2022-12-29T03:21:15;8.90;99.90
66568;DHT22;53422;49.296;6.900;2022-12-29T03:23:34;8.90;99.90
66568;DHT22;53422;49.296;6.900;2022-12-29T03:26:03;8.90;99.90
66568;DHT22;53422;49.296;6.900;2022-12-29T03:28:39;8.90;99.90
66568;DHT22;53422;49.296;6.900;2022-12-29T03:31:08;8.90;99.90
66568;DHT22;53422;49.296;6.900;2022-12-29T03:33:35;8.90;99.90
66568;DHT22;53422;49.296;6.900;2022-12-29T03:36:04;8.90;99.90
66568;DHT22;53422;49.296;6.900;2022-12-29T03:38:57;8.90;99.90
66568;DHT22;53422;49.296;6.900;2022-12-29T03:41:27;8.90;99.90
66568;DHT22;53422;49.296;6.900;2022-12-29T03:43:54;8.90;99.90
66568;DHT22;53422;49.296;6.900;2022-12-29T03:46:20;8.80;99.90
66568;DHT22;53422;49.296;6.900;2022-12-29T03:48:45;8.80;99.90
66568;DHT22;53422;49.296;6.900;2022-12-29T03:51:11;8.90;99.90
66568;DHT22;53422;49.296;6.900;2022-12-29T03:53:36;8.80;99.90
66568;DHT22;53422;49.296;6.900;2022-12-29T03:56:02;8.90;99.90
66568;DHT22;53422;49.296;6.900;2022-12-29T03:58:28;8.90;99.90
66568;DHT22;53422;49.296;6.900;2022-12-29T04:00:53;8.90;99.90
66568;DHT22;53422;49.296;6.900;2022-12-29T04:03:19;8.90;99.90
66568;DHT22;53422;49.296;6.900;2022-12-29T04:05:45;8.90;99.90
66568;DHT22;53422;49.296;6.900;2022-12-29T04:08:10;8.90;99.90
66568;DHT22;53422;49.296;6.900;2022-12-29T04:10:36;9.00;99.90
66568;DHT22;53422;49.296;6.900;2022-12-29T04:13:02;8.90;99.90
66568;DHT22;53422;49.296;6.900;2022-12-29T04:15:27;8.90;99.90
66568;DHT22;53422;49.296;6.900;2022-12-29T04:17:53;8.90;99.90
66568;DHT22;53422;49.296;6.900;2022-12-29T04:20:18;9.00;99.90
66568;DHT22;53422;49.296;6.900;2022-12-29T04:23:19;9.00;99.90
66568;DHT22;53422;49.296;6.900;2022-12-29T04:25:45;9.00;99.90
66568;DHT22;53422;49.296;6.900;2022-12-29T04:28:13;9.00;99.90
66568;DHT22;53422;49.296;6.900;2022-12-29T04:30:38;8.90;99.90
66568;DHT22;53422;49.296;6.900;2022-12-29T04:33:04;9.00;99.90
66568;DHT22;53422;49.296;6.900;2022-12-29T04:35:29;9.00;99.90
66568;DHT22;53422;49.296;6.900;2022-12-29T04:37:55;9.00;99.90
66568;DHT22;53422;49.296;6.900;2022-12-29T04:40:21;9.00;99.90
66568;DHT22;53422;49.296;6.900;2022-12-29T04:42:46;9.00;99.90
66568;DHT22;53422;49.296;6.900;2022-12-29T04:45:12;9.00;99.90
66568;DHT22;53422;49.296;6.900;2022-12-29T04:47:38;9.00;99.90
66568;DHT22;53422;49.296;6.900;2022-12-29T04:50:04;9.00;99.90
66568;DHT22;53422;49.296;6.900;2022-12-29T04:52:30;9.00;99.90
66568;DHT22;53422;49.296;6.900;2022-12-29T04:54:55;9.00;99.90
66568;DHT22;53422;49.296;6.900;2022-12-29T04:57:21;9.00;99.90
66568;DHT22;53422;49.296;6.900;2022-12-29T04:59:46;9.00;99.90
66568;DHT22;53422;49.296;6.900;2022-12-29T05:02:12;8.90;99.90
66568;DHT22;53422;49.296;6.900;2022-12-29T05:04:38;9.00;99.90
66568;DHT22;53422;49.296;6.900;2022-12-29T05:07:03;9.00;99.90
66568;DHT22;53422;49.296;6.900;2022-12-29T05:09:29;9.00;99.90
66568;DHT22;53422;49.296;6.900;2022-12-29T05:11:55;8.90;99.90
66568;DHT22;53422;49.296;6.900;2022-12-29T05:14:21;8.90;99.90
66568;DHT22;53422;49.296;6.900;2022-12-29T05:16:47;9.00;99.90
66568;DHT22;53422;49.296;6.900;2022-12-29T05:19:12;9.00;99.90
66568;DHT22;53422;49.296;6.900;2022-12-29T05:21:38;8.90;99.90
66568;DHT22;53422;49.296;6.900;2022-12-29T05:24:04;9.00;99.90
66568;DHT22;53422;49.296;6.900;2022-12-29T05:26:29;9.00;99.90
66568;DHT22;53422;49.296;6.900;2022-12-29T05:28:55;8.90;99.90
66568;DHT22;53422;49.296;6.900;2022-12-29T05:31:21;8.90;99.90
66568;DHT22;53422;49.296;6.900;2022-12-29T05:33:46;8.90;99.90
66568;DHT22;53422;49.296;6.900;2022-12-29T05:36:12;8.90;99.90
66568;DHT22;53422;49.296;6.900;2022-12-29T05:38:38;9.00;99.90
66568;DHT22;53422;49.296;6.900;2022-12-29T05:41:04;9.00;99.90
66568;DHT22;53422;49.296;6.900;2022-12-29T05:43:29;9.00;99.90
66568;DHT22;53422;49.296;6.900;2022-12-29T05:45:55;8.90;99.90
66568;DHT22;53422;49.296;6.900;2022-12-29T05:48:21;9.00;99.90
66568;DHT22;53422;49.296;6.900;2022-12-29T05:50:48;8.90;99.90
66568;DHT22;53422;49.296;6.900;2022-12-29T05:53:14;9.00;99.90
66568;DHT22;53422;49.296;6.900;2022-12-29T05:55:39;9.00;99.90
66568;DHT22;53422;49.296;6.900;2022-12-29T05:58:05;9.10;99.90
66568;DHT22;53422;49.296;6.900;2022-12-29T06:00:31;9.00;99.90
66568;DHT22;53422;49.296;6.900;2022-12-29T06:02:56;9.10;99.90
66568;DHT22;53422;49.296;6.900;2022-12-29T06:05:22;9.10;99.90
66568;DHT22;53422;49.296;6.900;2022-12-29T06:07:48;9.20;99.90
66568;DHT22;53422;49.296;6.900;2022-12-29T06:10:13;9.20;99.90
66568;DHT22;53422;49.296;6.900;2022-12-29T06:12:39;9.10;99.90
66568;DHT22;53422;49.296;6.900;2022-12-29T06:15:05;9.10;99.90
66568;DHT22;53422;49.296;6.900;2022-12-29T06:17:31;9.20;99.90
66568;DHT22;53422;49.296;6.900;2022-12-29T06:19:56;9.10;99.90
66568;DHT22;53422;49.296;6.900;2022-12-29T06:22:22;9.10;99.90
66568;DHT22;53422;49.296;6.900;2022-12-29T06:24:47;9.10;99.90
66568;DHT22;53422;49.296;6.900;2022-12-29T06:27:13;9.10;99.90
66568;DHT22;53422;49.296;6.900;2022-12-29T06:29:39;9.20;99.90
66568;DHT22;53422;49.296;6.900;2022-12-29T06:32:07;9.30;99.90
66568;DHT22;53422;49.296;6.900;2022-12-29T06:34:32;9.30;99.90
66568;DHT22;53422;49.296;6.900;2022-12-29T06:36:58;9.30;99.90
66568;DHT22;53422;49.296;6.900;2022-12-29T06:39:24;9.40;99.90
66568;DHT22;53422;49.296;6.900;2022-12-29T06:41:52;9.30;99.90
66568;DHT22;53422;49.296;6.900;2022-12-29T06:44:18;9.30;99.90
66568;DHT22;53422;49.296;6.900;2022-12-29T06:46:44;9.20;99.90
66568;DHT22;53422;49.296;6.900;2022-12-29T06:49:10;9.30;99.90
66568;DHT22;53422;49.296;6.900;2022-12-29T06:51:35;9.30;99.90
66568;DHT22;53422;49.296;6.900;2022-12-29T06:54:01;9.10;99.90
66568;DHT22;53422;49.296;6.900;2022-12-29T06:56:26;9.10;99.90
66568;DHT22;53422;49.296;6.900;2022-12-29T06:58:52;9.20;99.90
66568;DHT22;53422;49.296;6.900;2022-12-29T07:01:18;9.30;99.90
66568;DHT22;53422;49.296;6.900;2022-12-29T07:03:43;9.30;99.90
66568;DHT22;53422;49.296;6.900;2022-12-29T07:06:09;9.30;99.90
66568;DHT22;53422;49.296;6.900;2022-12-29T07:08:35;9.40;99.90
66568;DHT22;53422;49.296;6.900;2022-12-29T07:11:00;9.30;99.90
66568;DHT22;53422;49.296;6.900;2022-12-29T07:13:26;9.30;99.90
66568;DHT22;53422;49.296;6.900;2022-12-29T07:15:52;9.30;99.90
66568;DHT22;53422;49.296;6.900;2022-12-29T07:18:17;9.30;99.90
66568;DHT22;53422;49.296;6.900;2022-12-29T07:20:43;9.20;99.90
66568;DHT22;53422;49.296;6.900;2022-12-29T07:23:09;9.20;99.90
66568;DHT22;53422;49.296;6.900;2022-12-29T07:25:34;9.20;99.90
66568;DHT22;53422;49.296;6.900;2022-12-29T07:28:01;9.20;99.90
66568;DHT22;53422;49.296;6.900;2022-12-29T07:30:27;9.30;99.90
66568;DHT22;53422;49.296;6.900;2022-12-29T07:32:53;9.20;99.90
66568;DHT22;53422;49.296;6.900;2022-12-29T07:35:18;9.20;99.90
66568;DHT22;53422;49.296;6.900;2022-12-29T07:37:44;9.20;99.90
66568;DHT22;53422;49.296;6.900;2022-12-29T07:40:10;9.10;99.90
66568;DHT22;53422;49.296;6.900;2022-12-29T07:42:36;9.20;99.90
66568;DHT22;53422;49.296;6.900;2022-12-29T07:45:02;9.20;99.90
66568;DHT22;53422;49.296;6.900;2022-12-29T07:47:27;9.20;99.90
66568;DHT22;53422;49.296;6.900;2022-12-29T07:49:53;9.10;99.90
66568;DHT22;53422;49.296;6.900;2022-12-29T07:52:19;9.20;99.90
66568;DHT22;53422;49.296;6.900;2022-12-29T07:54:44;9.20;99.90
66568;DHT22;53422;49.296;6.900;2022-12-29T07:57:10;9.20;99.90
66568;DHT22;53422;49.296;6.900;2022-12-29T07:59:36;9.30;99.90
66568;DHT22;53422;49.296;6.900;2022-12-29T08:02:01;9.30;99.90
66568;DHT22;53422;49.296;6.900;2022-12-29T08:04:27;9.20;99.90
66568;DHT22;53422;49.296;6.900;2022-12-29T08:06:52;9.20;99.90
66568;DHT22;53422;49.296;6.900;2022-12-29T08:09:18;9.30;99.90
66568;DHT22;53422;49.296;6.900;2022-12-29T08:11:44;9.20;99.90
66568;DHT22;53422;49.296;6.900;2022-12-29T08:14:10;9.30;99.90
66568;DHT22;53422;49.296;6.900;2022-12-29T08:16:35;9.20;99.90
66568;DHT22;53422;49.296;6.900;2022-12-29T08:19:02;9.20;99.90
66568;DHT22;53422;49.296;6.900;2022-12-29T08:21:29;9.20;99.90
66568;DHT22;53422;49.296;6.900;2022-12-29T08:23:55;9.20;99.90
66568;DHT22;53422;49.296;6.900;2022-12-29T08:26:20;9.20;99.90
66568;DHT22;53422;49.296;6.900;2022-12-29T08:28:46;9.20;99.90
66568;DHT22;53422;49.296;6.900;2022-12-29T08:31:12;9.20;99.90
66568;DHT22;53422;49.296;6.900;2022-12-29T08:33:37;9.20;99.90
66568;DHT22;53422;49.296;6.900;2022-12-29T08:36:06;9.20;99.90
66568;DHT22;53422;49.296;6.900;2022-12-29T08:38:31;9.30;99.90
66568;DHT22;53422;49.296;6.900;2022-12-29T08:40:58;9.30;99.90
66568;DHT22;53422;49.296;6.900;2022-12-29T08:43:24;9.20;99.90
66568;DHT22;53422;49.296;6.900;2022-12-29T08:45:50;9.30;99.90
66568;DHT22;53422;49.296;6.900;2022-12-29T08:48:16;9.30;99.90
66568;DHT22;53422;49.296;6.900;2022-12-29T08:50:45;9.30;99.90
66568;DHT22;53422;49.296;6.900;2022-12-29T08:53:11;9.30;99.90
66568;DHT22;53422;49.296;6.900;2022-12-29T08:55:37;9.30;99.90
66568;DHT22;53422;49.296;6.900;2022-12-29T08:58:03;9.30;99.90
66568;DHT22;53422;49.296;6.900;2022-12-29T09:00:29;9.30;99.90
66568;DHT22;53422;49.296;6.900;2022-12-29T09:02:54;9.30;99.90
66568;DHT22;53422;49.296;6.900;2022-12-29T09:05:20;9.30;99.90
66568;DHT22;53422;49.296;6.900;2022-12-29T09:07:46;9.40;99.90
66568;DHT22;53422;49.296;6.900;2022-12-29T09:10:14;9.40;99.90
66568;DHT22;53422;49.296;6.900;2022-12-29T09:12:40;9.40;99.90
66568;DHT22;53422;49.296;6.900;2022-12-29T09:15:06;9.30;99.90
66568;DHT22;53422;49.296;6.900;2022-12-29T09:17:32;9.30;99.90
66568;DHT22;53422;49.296;6.900;2022-12-29T09:20:12;9.40;99.90
66568;DHT22;53422;49.296;6.900;2022-12-29T09:22:39;9.50;99.90
66568;DHT22;53422;49.296;6.900;2022-12-29T09:25:05;9.50;99.90
66568;DHT22;53422;49.296;6.900;2022-12-29T09:27:30;9.50;99.90
66568;DHT22;53422;49.296;6.900;2022-12-29T09:29:56;9.50;99.90
66568;DHT22;53422;49.296;6.900;2022-12-29T09:32:22;9.50;99.90
66568;DHT22;53422;49.296;6.900;2022-12-29T09:34:48;9.50;99.90
66568;DHT22;53422;49.296;6.900;2022-12-29T09:37:13;9.30;99.90
66568;DHT22;53422;49.296;6.900;2022-12-29T09:39:39;9.40;99.90
66568;DHT22;53422;49.296;6.900;2022-12-29T09:47:17;9.40;99.90
66568;DHT22;53422;49.296;6.900;2022-12-29T09:49:50;9.50;99.90
66568;DHT22;53422;49.296;6.900;2022-12-29T09:54:57;9.50;99.90
66568;DHT22;53422;49.296;6.900;2022-12-29T09:57:28;9.50;99.90
66568;DHT22;53422;49.296;6.900;2022-12-29T10:00:13;9.40;99.90
66568;DHT22;53422;49.296;6.900;2022-12-29T10:02:42;9.40;99.90
66568;DHT22;53422;49.296;6.900;2022-12-29T10:08:36;9.40;99.90
66568;DHT22;53422;49.296;6.900;2022-12-29T10:14:27;9.40;99.90
66568;DHT22;53422;49.296;6.900;2022-12-29T10:20:01;9.30;99.90
66568;DHT22;53422;49.296;6.900;2022-12-29T10:22:49;9.30;99.90
66568;DHT22;53422;49.296;6.900;2022-12-29T10:25:20;9.20;99.90
66568;DHT22;53422;49.296;6.900;2022-12-29T10:27:48;9.20;99.90
66568;DHT22;53422;49.296;6.900;2022-12-29T10:30:15;9.20;99.90
66568;DHT22;53422;49.296;6.900;2022-12-29T10:32:49;9.20;99.90
66568;DHT22;53422;49.296;6.900;2022-12-29T10:35:23;9.20;99.90
66568;DHT22;53422;49.296;6.900;2022-12-29T10:38:27;9.20;99.90
66568;DHT22;53422;49.296;6.900;2022-12-29T10:41:15;9.20;99.90
66568;DHT22;53422;49.296;6.900;2022-12-29T10:43:53;9.20;99.90
66568;DHT22;53422;49.296;6.900;2022-12-29T10:46:32;9.20;99.90
66568;DHT22;53422;49.296;6.900;2022-12-29T10:48:59;9.20;99.90
66568;DHT22;53422;49.296;6.900;2022-12-29T10:51:27;9.20;99.90
66568;DHT22;53422;49.296;6.900;2022-12-29T10:54:21;9.20;99.90
66568;DHT22;53422;49.296;6.900;2022-12-29T10:56:56;9.30;99.90
66568;DHT22;53422;49.296;6.900;2022-12-29T10:59:26;9.30;99.90
66568;DHT22;53422;49.296;6.900;2022-12-29T11:07:40;9.40;99.90
66568;DHT22;53422;49.296;6.900;2022-12-29T11:13:04;9.40;99.90
66568;DHT22;53422;49.296;6.900;2022-12-29T11:15:49;9.40;99.90
66568;DHT22;53422;49.296;6.900;2022-12-29T11:18:21;9.50;99.90
66568;DHT22;53422;49.296;6.900;2022-12-29T11:20:55;9.40;99.90
66568;DHT22;53422;49.296;6.900;2022-12-29T11:23:41;9.50;99.90
66568;DHT22;53422;49.296;6.900;2022-12-29T11:26:21;9.60;99.90
66568;DHT22;53422;49.296;6.900;2022-12-29T11:29:22;9.60;99.90
66568;DHT22;53422;49.296;6.900;2022-12-29T11:31:51;9.60;99.90
66568;DHT22;53422;49.296;6.900;2022-12-29T11:34:22;9.60;99.90
66568;DHT22;53422;49.296;6.900;2022-12-29T11:36:50;9.60;99.90
66568;DHT22;53422;49.296;6.900;2022-12-29T11:42:04;9.60;99.90
66568;DHT22;53422;49.296;6.900;2022-12-29T11:44:37;9.60;99.90
66568;DHT22;53422;49.296;6.900;2022-12-29T11:47:09;9.60;99.90
66568;DHT22;53422;49.296;6.900;2022-12-29T11:49:38;9.60;99.90
66568;DHT22;53422;49.296;6.900;2022-12-29T11:52:07;9.70;99.90
66568;DHT22;53422;49.296;6.900;2022-12-29T11:54:36;9.60;99.90
66568;DHT22;53422;49.296;6.900;2022-12-29T11:57:15;9.60;99.90
66568;DHT22;53422;49.296;6.900;2022-12-29T11:59:43;9.60;99.90
66568;DHT22;53422;49.296;6.900;2022-12-29T12:05:10;9.50;99.90
66568;DHT22;53422;49.296;6.900;2022-12-29T12:07:46;9.60;99.90
66568;DHT22;53422;49.296;6.900;2022-12-29T12:10:21;9.60;99.90
66568;DHT22;53422;49.296;6.900;2022-12-29T12:13:33;9.60;99.90
66568;DHT22;53422;49.296;6.900;2022-12-29T12:15:57;9.60;99.90
66568;DHT22;53422;49.296;6.900;2022-12-29T12:21:25;9.60;99.90
66568;DHT22;53422;49.296;6.900;2022-12-29T12:26:30;9.60;99.90
66568;DHT22;53422;49.296;6.900;2022-12-29T12:29:13;9.80;99.90
66568;DHT22;53422;49.296;6.900;2022-12-29T12:31:53;9.90;99.90
66568;DHT22;53422;49.296;6.900;2022-12-29T12:34:27;9.90;99.90
66568;DHT22;53422;49.296;6.900;2022-12-29T12:39:27;9.90;99.90
66568;DHT22;53422;49.296;6.900;2022-12-29T12:56:22;9.80;99.90
66568;DHT22;53422;49.296;6.900;2022-12-29T12:59:17;9.90;99.90
66568;DHT22;53422;49.296;6.900;2022-12-29T13:20:46;9.80;99.90
66568;DHT22;53422;49.296;6.900;2022-12-29T13:23:41;9.80;99.90
66568;DHT22;53422;49.296;6.900;2022-12-29T13:26:19;9.80;99.90
66568;DHT22;53422;49.296;6.900;2022-12-29T13:37:10;9.80;99.90
66568;DHT22;53422;49.296;6.900;2022-12-29T13:39:58;9.90;99.90
66568;DHT22;53422;49.296;6.900;2022-12-29T13:42:31;9.80;99.90
66568;DHT22;53422;49.296;6.900;2022-12-29T13:45:06;9.90;99.90
66568;DHT22;53422;49.296;6.900;2022-12-29T13:50:58;9.90;99.90
66568;DHT22;53422;49.296;6.900;2022-12-29T13:59:03;9.90;99.90
66568;DHT22;53422;49.296;6.900;2022-12-29T14:05:02;10.00;99.90
66568;DHT22;53422;49.296;6.900;2022-12-29T14:07:29;10.00;99.90
66568;DHT22;53422;49.296;6.900;2022-12-29T14:10:00;10.00;99.90
66568;DHT22;53422;49.296;6.900;2022-12-29T14:12:36;9.90;99.90
66568;DHT22;53422;49.296;6.900;2022-12-29T14:17:36;9.90;99.90
66568;DHT22;53422;49.296;6.900;2022-12-29T14:20:03;9.90;99.90
66568;DHT22;53422;49.296;6.900;2022-12-29T14:22:33;9.90;99.90
66568;DHT22;53422;49.296;6.900;2022-12-29T14:24:59;9.80;99.90
66568;DHT22;53422;49.296;6.900;2022-12-29T14:29:53;9.80;99.90
66568;DHT22;53422;49.296;6.900;2022-12-29T14:37:30;9.70;99.90
66568;DHT22;53422;49.296;6.900;2022-12-29T14:42:32;9.70;99.90
66568;DHT22;53422;49.296;6.900;2022-12-29T14:47:40;9.70;99.90
66568;DHT22;53422;49.296;6.900;2022-12-29T14:50:17;9.70;99.90
66568;DHT22;53422;49.296;6.900;2022-12-29T14:52:56;9.60;99.90
66568;DHT22;53422;49.296;6.900;2022-12-29T14:55:42;9.60;99.90
66568;DHT22;53422;49.296;6.900;2022-12-29T14:58:43;9.70;99.90
66568;DHT22;53422;49.296;6.900;2022-12-29T15:04:00;9.60;99.90
66568;DHT22;53422;49.296;6.900;2022-12-29T15:06:29;9.60;99.90
66568;DHT22;53422;49.296;6.900;2022-12-29T15:09:30;9.60;99.90
66568;DHT22;53422;49.296;6.900;2022-12-29T15:12:35;9.60;99.90
66568;DHT22;53422;49.296;6.900;2022-12-29T15:15:26;9.60;99.90
66568;DHT22;53422;49.296;6.900;2022-12-29T15:17:52;9.60;99.90
66568;DHT22;53422;49.296;6.900;2022-12-29T15:20:29;9.60;99.90
66568;DHT22;53422;49.296;6.900;2022-12-29T15:23:02;9.50;99.90
66568;DHT22;53422;49.296;6.900;2022-12-29T15:25:28;9.50;99.90
66568;DHT22;53422;49.296;6.900;2022-12-29T15:28:00;9.50;99.90
66568;DHT22;53422;49.296;6.900;2022-12-29T15:30:26;9.50;99.90
66568;DHT22;53422;49.296;6.900;2022-12-29T15:32:52;9.50;99.90
66568;DHT22;53422;49.296;6.900;2022-12-29T15:35:35;9.50;99.90
66568;DHT22;53422;49.296;6.900;2022-12-29T15:38:12;9.50;99.90
66568;DHT22;53422;49.296;6.900;2022-12-29T15:40:38;9.40;99.90
66568;DHT22;53422;49.296;6.900;2022-12-29T15:45:54;9.50;99.90
66568;DHT22;53422;49.296;6.900;2022-12-29T15:48:21;9.40;99.90
66568;DHT22;53422;49.296;6.900;2022-12-29T15:50:48;9.40;99.90
66568;DHT22;53422;49.296;6.900;2022-12-29T15:53:26;9.30;99.90
66568;DHT22;53422;49.296;6.900;2022-12-29T15:56:01;9.30;99.90
66568;DHT22;53422;49.296;6.900;2022-12-29T15:58:49;9.30;99.90
66568;DHT22;53422;49.296;6.900;2022-12-29T16:01:32;9.30;99.90
66568;DHT22;53422;49.296;6.900;2022-12-29T16:04:04;9.30;99.90
66568;DHT22;53422;49.296;6.900;2022-12-29T16:06:38;9.30;99.90
66568;DHT22;53422;49.296;6.900;2022-12-29T16:09:17;9.30;99.90
66568;DHT22;53422;49.296;6.900;2022-12-29T16:11:56;9.30;99.90
66568;DHT22;53422;49.296;6.900;2022-12-29T16:14:33;9.20;99.90
66568;DHT22;53422;49.296;6.900;2022-12-29T16:17:02;9.20;99.90
66568;DHT22;53422;49.296;6.900;2022-12-29T16:19:34;9.20;99.90
66568;DHT22;53422;49.296;6.900;2022-12-29T16:22:03;9.20;99.90
66568;DHT22;53422;49.296;6.900;2022-12-29T16:24:38;9.20;99.90
66568;DHT22;53422;49.296;6.900;2022-12-29T16:27:15;9.20;99.90
66568;DHT22;53422;49.296;6.900;2022-12-29T16:29:44;9.20;99.90
66568;DHT22;53422;49.296;6.900;2022-12-29T16:32:26;9.20;99.90
66568;DHT22;53422;49.296;6.900;2022-12-29T16:35:13;9.10;99.90
66568;DHT22;53422;49.296;6.900;2022-12-29T16:37:42;9.10;99.90
66568;DHT22;53422;49.296;6.900;2022-12-29T16:42:46;9.10;99.90
66568;DHT22;53422;49.296;6.900;2022-12-29T16:50:33;9.00;99.90
66568;DHT22;53422;49.296;6.900;2022-12-29T16:53:00;9.00;99.90
66568;DHT22;53422;49.296;6.900;2022-12-29T16:55:28;9.10;99.90
66568;DHT22;53422;49.296;6.900;2022-12-29T16:57:54;9.10;99.90
66568;DHT22;53422;49.296;6.900;2022-12-29T17:00:26;9.00;99.90
66568;DHT22;53422;49.296;6.900;2022-12-29T17:02:56;8.90;99.90
66568;DHT22;53422;49.296;6.900;2022-12-29T17:05:22;9.00;99.90
66568;DHT22;53422;49.296;6.900;2022-12-29T17:07:49;9.00;99.90
66568;DHT22;53422;49.296;6.900;2022-12-29T17:10:16;9.00;99.90
66568;DHT22;53422;49.296;6.900;2022-12-29T17:12:44;9.00;99.90
66568;DHT22;53422;49.296;6.900;2022-12-29T17:15:21;9.00;99.90
66568;DHT22;53422;49.296;6.900;2022-12-29T17:17:49;9.00;99.90
66568;DHT22;53422;49.296;6.900;2022-12-29T17:20:22;8.90;99.90
66568;DHT22;53422;49.296;6.900;2022-12-29T17:22:48;8.90;99.90
66568;DHT22;53422;49.296;6.900;2022-12-29T17:25:41;8.90;99.90
66568;DHT22;53422;49.296;6.900;2022-12-29T17:28:19;8.90;99.90
66568;DHT22;53422;49.296;6.900;2022-12-29T17:30:46;8.90;99.90
66568;DHT22;53422;49.296;6.900;2022-12-29T17:33:17;9.00;99.90
66568;DHT22;53422;49.296;6.900;2022-12-29T17:35:44;8.90;99.90
66568;DHT22;53422;49.296;6.900;2022-12-29T17:38:21;8.90;99.90
66568;DHT22;53422;49.296;6.900;2022-12-29T17:40:48;8.90;99.90
66568;DHT22;53422;49.296;6.900;2022-12-29T17:43:15;8.90;99.90
66568;DHT22;53422;49.296;6.900;2022-12-29T17:45:42;8.90;99.90
66568;DHT22;53422;49.296;6.900;2022-12-29T17:48:16;8.90;99.90
66568;DHT22;53422;49.296;6.900;2022-12-29T17:50:43;8.90;99.90
66568;DHT22;53422;49.296;6.900;2022-12-29T17:53:11;8.80;99.90
66568;DHT22;53422;49.296;6.900;2022-12-29T17:55:37;8.80;99.90
66568;DHT22;53422;49.296;6.900;2022-12-29T17:58:31;8.80;99.90
66568;DHT22;53422;49.296;6.900;2022-12-29T18:00:59;8.80;99.90
66568;DHT22;53422;49.296;6.900;2022-12-29T18:03:32;8.80;99.90
66568;DHT22;53422;49.296;6.900;2022-12-29T18:05:59;8.80;99.90
66568;DHT22;53422;49.296;6.900;2022-12-29T18:08:24;8.80;99.90
66568;DHT22;53422;49.296;6.900;2022-12-29T18:10:51;8.70;99.90
66568;DHT22;53422;49.296;6.900;2022-12-29T18:13:30;8.70;99.90
66568;DHT22;53422;49.296;6.900;2022-12-29T18:15:56;8.80;99.90
66568;DHT22;53422;49.296;6.900;2022-12-29T18:18:24;8.80;99.90
66568;DHT22;53422;49.296;6.900;2022-12-29T18:20:51;8.80;99.90
66568;DHT22;53422;49.296;6.900;2022-12-29T18:25:59;8.70;99.90
66568;DHT22;53422;49.296;6.900;2022-12-29T18:28:26;8.70;99.90
66568;DHT22;53422;49.296;6.900;2022-12-29T18:30:52;8.60;99.90
66568;DHT22;53422;49.296;6.900;2022-12-29T18:33:19;8.70;99.90
66568;DHT22;53422;49.296;6.900;2022-12-29T18:35:57;8.60;99.90
66568;DHT22;53422;49.296;6.900;2022-12-29T18:38:23;8.70;99.90
66568;DHT22;53422;49.296;6.900;2022-12-29T18:40:49;8.70;99.90
66568;DHT22;53422;49.296;6.900;2022-12-29T18:43:15;8.70;99.90
66568;DHT22;53422;49.296;6.900;2022-12-29T18:45:43;8.70;99.90
66568;DHT22;53422;49.296;6.900;2022-12-29T18:48:15;8.60;99.90
66568;DHT22;53422;49.296;6.900;2022-12-29T18:50:42;8.60;99.90
66568;DHT22;53422;49.296;6.900;2022-12-29T18:53:19;8.60;99.90
66568;DHT22;53422;49.296;6.900;2022-12-29T18:55:44;8.60;99.90
66568;DHT22;53422;49.296;6.900;2022-12-29T18:58:10;8.60;99.90